Relevés horaires Gornergrat (Suisse)


Relevés horaires à Gornergrat - Jeudi 18 Janv. 2018
Heure UTC1 Température [°C] Vent [km/h] Hum. [%] Pres.4 [hPa] Visi. [Km] Nébu. [octa] Préc.5 [mm] Cond.
2m. Res. Ros. Dir.2 Vit. Moy. Raf.3
21:00 -6.8 -16.9 -10.2 ONO 44.4 -- 72.2 77 700(-0.4/3h) -- -- -- --
20:00 -6.2 -16.1 -6.4 ONO 44.4 -- 64.8 98 700(-0.4/3h) -- -- -- --
19:00 -6.5 -15.4 -8.1 NO 33.3 -- 66.7 88 700(-0.2/3h) -- -- -- --
18:00 -6.7 -14.9 -7.6 O 27.8 -- 74.1 93 700(0.1/3h) -- -- -- --
17:00 -7.4 -13.5 -7.4 OSO 14.8 -- 50.0 100 700(-0.5/3h) -- -- -- --
16:00 -7.2 -14 -7.6 SSO 18.5 -- 33.3 97 700(-0.7/3h) -- -- -- --
15:00 -7.5 -12.6 -7.9 OSO 11.1 -- 74.1 97 700(-1.0/3h) -- -- -- --
14:00 -7.7 -13.9 -8.7 ONO 14.8 -- 74.1 92 700(-0.2/3h) -- -- -- --
13:00 -6.4 -14 -8.4 ONO 24.1 -- 57.4 86 700(0.1/3h) -- -- -- --
12:00 -7.0 -15 -7.0 ONO 25.9 -- 90.7 100 700(0.2/3h) -- -- -- --
11:00 -6.3 -14.9 -6.3 ONO 31.5 -- 57.4 100 700(0.0/3h) -- -- -- --
10:00 -6.6 -15.3 -8.2 ONO 31.5 -- 70.4 88 700(0.5/3h) -- -- -- --
09:00 -6.5 -16 -6.5 ONO 38.9 -- 90.7 100 700(1.0/3h) -- -- -- --
08:00 -7.2 -15 -8.8 NO 24.1 -- 64.8 88 700(1.4/3h) -- -- -- --
07:00 -7.6 -17.6 -10.1 NO 40.7 -- 90.7 82 700(0.8/3h) -- -- -- --
06:00 -7.2 -17.1 -8.9 NO 40.7 -- 90.7 88 700(0.3/3h) -- -- -- --
05:00 -7.6 -17.6 -8.8 ONO 40.7 -- 75.9 91 700(-0.1/3h) -- -- -- --
04:00 -8.4 -18.3 -10.5 ONO 37.0 -- 90.7 85 700(0.3/3h) -- -- -- --
03:00 -10.4 -20.7 -10.4 NO 35.2 -- 81.5 100 700(0.8/3h) -- -- -- --
02:00 -11.3 -21.9 -13.5 ONO 35.2 -- 81.5 84 700(2.1/3h) -- -- -- --
01:00 -14.7 -25.3 -14.7 ONO 27.8 -- 74.1 100 700(2.6/3h) -- -- -- --
00:00 -13.3 -24.1 -15.4 ONO 31.5 -- 118.5 84 700(2.3/3h) -- -- -- --

1 Coordinated Universal Time. Actuellement il est 22:00 locale et 21:00 UTC.

2 Le vent souffle depuis la direction indiquée vers la direction oposée.

3 Les rafales max. sont disponible 40 min après l'heure du relevé.

4 Pour les stations d'altitude (plus de 600m) le géopotentiel du niveau le plus proche de la pression obligatoire est indiqué.

5 Les stations disposant d'un diffuseur peuvent indiquer "trace". Cela signifie que des précipitations ont touchés le sol mais que la quantité est inférieure à 0.1 mm.

Récapitulatif de la journée
Température [°C] Vent [km/h] Ensoleillement4 [h] Precipitations totale5 [mm] Pression [Hpa]
Min1 Max.2 Moy.3 Max. Min Max.
-18.0 -6.2 0 118.5 0 h 0 min 0 700.0 700.0

1 Température minimale relevée entre 18:00 UTC la veille et 18:00 UTC le jour donné.

2 Température maximale relevée entre 06:00 UTC le jour donné et 06:00 UTC le lendemain.

3 Vent moyen de la journée basé sur les relevés horaires.

4 Ensoleillement en heures relevé entre 06:00 UTC la veille et 06:00 UTC le jour donné.

5 Précipitations totales tombées entre 06:00 UTC la jour donné et 06:00 UTC le lendemain.

Graphiques horaires